sensor_id;sensor_type;location;lat;lon;timestamp;pressure;altitude;pressure_sealevel;temperature;humidity
74169;BME280;62523;53.336;83.690;2022-10-16T00:00:46;100003.94;;;0.42;92.18
74169;BME280;62523;53.336;83.690;2022-10-16T00:05:47;100006.50;;;0.54;91.07
74169;BME280;62523;53.336;83.690;2022-10-16T00:10:48;100010.91;;;0.29;93.83
74169;BME280;62523;53.336;83.690;2022-10-16T00:15:49;100012.66;;;0.13;93.96
74169;BME280;62523;53.336;83.690;2022-10-16T00:20:51;100007.50;;;0.10;93.81
74169;BME280;62523;53.336;83.690;2022-10-16T00:26:16;100010.91;;;0.26;92.91
74169;BME280;62523;53.336;83.690;2022-10-16T00:31:20;100007.47;;;0.28;93.35
74169;BME280;62523;53.336;83.690;2022-10-16T00:36:23;100005.75;;;0.23;93.27
74169;BME280;62523;53.336;83.690;2022-10-16T00:41:25;100005.72;;;0.26;92.98
74169;BME280;62523;53.336;83.690;2022-10-16T00:46:45;100008.38;;;0.06;93.90
74169;BME280;62523;53.336;83.690;2022-10-16T00:51:53;100014.34;;;0.28;92.61
74169;BME280;62523;53.336;83.690;2022-10-16T00:56:56;100022.22;;;0.05;93.95
74169;BME280;62523;53.336;83.690;2022-10-16T01:01:58;100028.16;;;0.37;92.08
74169;BME280;62523;53.336;83.690;2022-10-16T01:07:11;100023.00;;;0.33;92.15
74169;BME280;62523;53.336;83.690;2022-10-16T01:12:42;100033.31;;;0.40;91.75
74169;BME280;62523;53.336;83.690;2022-10-16T01:17:53;100030.59;;;0.67;89.80
74169;BME280;62523;53.336;83.690;2022-10-16T01:28:12;100026.13;;;0.96;89.26
74169;BME280;62523;53.336;83.690;2022-10-16T01:33:38;99932.16;;;0.54;88.13
74169;BME280;62523;53.336;83.690;2022-10-16T01:38:43;100032.84;;;1.31;86.94
74169;BME280;62523;53.336;83.690;2022-10-16T01:43:51;100030.19;;;1.40;86.46
74169;BME280;62523;53.336;83.690;2022-10-16T01:48:55;100043.66;;;1.84;84.70
74169;BME280;62523;53.336;83.690;2022-10-16T01:53:58;100034.91;;;1.96;83.36
74169;BME280;62523;53.336;83.690;2022-10-16T01:59:07;100044.97;;;2.27;81.83
74169;BME280;62523;53.336;83.690;2022-10-16T02:04:35;100041.97;;;2.62;79.85
74169;BME280;62523;53.336;83.690;2022-10-16T02:09:38;100040.88;;;2.80;77.42
74169;BME280;62523;53.336;83.690;2022-10-16T02:14:40;100039.84;;;2.93;77.74
74169;BME280;62523;53.336;83.690;2022-10-16T02:19:42;100052.22;;;3.36;74.80
74169;BME280;62523;53.336;83.690;2022-10-16T02:29:53;100062.25;;;3.62;73.64
74169;BME280;62523;53.336;83.690;2022-10-16T02:35:00;100040.72;;;3.51;70.86
74169;BME280;62523;53.336;83.690;2022-10-16T02:40:02;100059.38;;;3.79;68.06
74169;BME280;62523;53.336;83.690;2022-10-16T02:45:07;100038.13;;;4.01;68.82
74169;BME280;62523;53.336;83.690;2022-10-16T02:50:09;100046.38;;;4.26;68.57
74169;BME280;62523;53.336;83.690;2022-10-16T02:55:11;100052.78;;;4.53;68.58
74169;BME280;62523;53.336;83.690;2022-10-16T03:00:14;100051.69;;;4.65;67.91
74169;BME280;62523;53.336;83.690;2022-10-16T03:05:16;100055.72;;;4.36;66.66
74169;BME280;62523;53.336;83.690;2022-10-16T03:10:18;100056.75;;;4.72;65.43
74169;BME280;62523;53.336;83.690;2022-10-16T03:15:19;100032.16;;;4.84;63.62
74169;BME280;62523;53.336;83.690;2022-10-16T03:20:20;100050.50;;;5.20;62.50
74169;BME280;62523;53.336;83.690;2022-10-16T03:25:22;100034.06;;;5.17;62.70
74169;BME280;62523;53.336;83.690;2022-10-16T03:30:23;100044.19;;;5.29;61.93
74169;BME280;62523;53.336;83.690;2022-10-16T03:35:24;100045.91;;;5.31;62.18
74169;BME280;62523;53.336;83.690;2022-10-16T03:40:26;100044.69;;;5.46;61.88
74169;BME280;62523;53.336;83.690;2022-10-16T03:45:27;100033.72;;;5.30;63.46
74169;BME280;62523;53.336;83.690;2022-10-16T03:50:29;100048.47;;;5.70;62.19
74169;BME280;62523;53.336;83.690;2022-10-16T03:55:30;100050.72;;;5.84;61.66
74169;BME280;62523;53.336;83.690;2022-10-16T04:00:31;100041.56;;;6.02;60.99
74169;BME280;62523;53.336;83.690;2022-10-16T04:05:32;100024.66;;;6.15;59.90
74169;BME280;62523;53.336;83.690;2022-10-16T04:10:33;100016.56;;;6.25;59.13
74169;BME280;62523;53.336;83.690;2022-10-16T04:15:34;100019.84;;;6.33;59.44
74169;BME280;62523;53.336;83.690;2022-10-16T04:20:35;100023.75;;;6.79;58.57
74169;BME280;62523;53.336;83.690;2022-10-16T04:25:36;100021.66;;;6.61;57.94
74169;BME280;62523;53.336;83.690;2022-10-16T04:30:38;100007.19;;;7.07;57.82
74169;BME280;62523;53.336;83.690;2022-10-16T04:35:40;100009.94;;;7.30;56.91
74169;BME280;62523;53.336;83.690;2022-10-16T04:40:42;99999.94;;;7.95;55.48
74169;BME280;62523;53.336;83.690;2022-10-16T04:45:43;99982.44;;;8.20;54.63
74169;BME280;62523;53.336;83.690;2022-10-16T04:50:45;99996.19;;;8.52;54.00
74169;BME280;62523;53.336;83.690;2022-10-16T04:55:47;99986.34;;;8.57;54.06
74169;BME280;62523;53.336;83.690;2022-10-16T05:00:48;99990.28;;;9.15;52.78
74169;BME280;62523;53.336;83.690;2022-10-16T05:05:49;99987.75;;;9.12;52.79
74169;BME280;62523;53.336;83.690;2022-10-16T05:10:50;99975.69;;;9.50;51.72
74169;BME280;62523;53.336;83.690;2022-10-16T05:15:52;99970.13;;;9.99;50.03
74169;BME280;62523;53.336;83.690;2022-10-16T05:20:53;99965.28;;;9.90;50.36
74169;BME280;62523;53.336;83.690;2022-10-16T05:25:58;99958.31;;;9.26;51.85
74169;BME280;62523;53.336;83.690;2022-10-16T05:31:04;99949.41;;;9.71;50.61
74169;BME280;62523;53.336;83.690;2022-10-16T05:36:08;99945.06;;;9.90;49.74
74169;BME280;62523;53.336;83.690;2022-10-16T05:41:10;99932.09;;;10.06;49.99
74169;BME280;62523;53.336;83.690;2022-10-16T05:46:11;99933.66;;;10.31;49.57
74169;BME280;62523;53.336;83.690;2022-10-16T05:51:14;99926.03;;;10.62;48.97
74169;BME280;62523;53.336;83.690;2022-10-16T05:56:16;99916.16;;;10.49;49.90
74169;BME280;62523;53.336;83.690;2022-10-16T06:01:19;99913.53;;;10.09;50.76
74169;BME280;62523;53.336;83.690;2022-10-16T06:06:23;99926.41;;;10.36;49.65
74169;BME280;62523;53.336;83.690;2022-10-16T06:11:29;99909.44;;;10.22;49.64
74169;BME280;62523;53.336;83.690;2022-10-16T06:16:32;99906.69;;;10.63;48.70
74169;BME280;62523;53.336;83.690;2022-10-16T06:21:33;99899.13;;;11.28;46.93
74169;BME280;62523;53.336;83.690;2022-10-16T06:26:34;99902.94;;;11.23;47.17
74169;BME280;62523;53.336;83.690;2022-10-16T06:31:35;99895.03;;;11.23;46.80
74169;BME280;62523;53.336;83.690;2022-10-16T06:36:37;99887.38;;;11.36;47.41
74169;BME280;62523;53.336;83.690;2022-10-16T06:41:39;99878.56;;;11.53;46.36
74169;BME280;62523;53.336;83.690;2022-10-16T06:46:40;99879.31;;;11.72;46.13
74169;BME280;62523;53.336;83.690;2022-10-16T06:51:42;99864.91;;;11.62;47.02
74169;BME280;62523;53.336;83.690;2022-10-16T06:56:44;99874.47;;;11.64;46.38
74169;BME280;62523;53.336;83.690;2022-10-16T07:01:45;99859.22;;;11.69;46.10
74169;BME280;62523;53.336;83.690;2022-10-16T07:06:46;99857.72;;;11.99;46.30
74169;BME280;62523;53.336;83.690;2022-10-16T07:11:48;99845.66;;;12.26;45.38
74169;BME280;62523;53.336;83.690;2022-10-16T07:16:49;99840.53;;;11.92;45.71
74169;BME280;62523;53.336;83.690;2022-10-16T07:21:50;99826.31;;;12.42;44.41
74169;BME280;62523;53.336;83.690;2022-10-16T07:26:52;99829.72;;;12.44;43.40
74169;BME280;62523;53.336;83.690;2022-10-16T07:31:53;99814.03;;;12.57;43.02
74169;BME280;62523;53.336;83.690;2022-10-16T07:36:55;99803.91;;;12.65;42.82
74169;BME280;62523;53.336;83.690;2022-10-16T07:41:56;99793.69;;;12.89;42.35
74169;BME280;62523;53.336;83.690;2022-10-16T07:46:57;99793.28;;;12.81;42.07
74169;BME280;62523;53.336;83.690;2022-10-16T07:51:59;99781.84;;;12.80;40.97
74169;BME280;62523;53.336;83.690;2022-10-16T07:57:00;99789.94;;;12.93;40.61
74169;BME280;62523;53.336;83.690;2022-10-16T08:02:02;99790.56;;;13.27;38.78
74169;BME280;62523;53.336;83.690;2022-10-16T08:07:03;99809.91;;;13.13;39.48
74169;BME280;62523;53.336;83.690;2022-10-16T08:12:04;99790.41;;;13.30;38.18
74169;BME280;62523;53.336;83.690;2022-10-16T08:17:06;99785.13;;;13.30;38.54
74169;BME280;62523;53.336;83.690;2022-10-16T08:22:07;99773.22;;;13.07;39.65
74169;BME280;62523;53.336;83.690;2022-10-16T08:27:08;99779.69;;;13.17;38.44
74169;BME280;62523;53.336;83.690;2022-10-16T08:32:09;99782.28;;;13.33;38.33
74169;BME280;62523;53.336;83.690;2022-10-16T08:37:11;99777.75;;;13.35;38.73
74169;BME280;62523;53.336;83.690;2022-10-16T08:53:13;99733.38;;;13.24;38.33
74169;BME280;62523;53.336;83.690;2022-10-16T08:58:21;99725.31;;;13.42;38.19
74169;BME280;62523;53.336;83.690;2022-10-16T09:08:51;99737.22;;;13.49;37.71
74169;BME280;62523;53.336;83.690;2022-10-16T09:19:24;99735.06;;;13.56;37.22
74169;BME280;62523;53.336;83.690;2022-10-16T09:24:29;99726.91;;;13.59;37.40
74169;BME280;62523;53.336;83.690;2022-10-16T09:29:31;99724.75;;;13.51;37.65
74169;BME280;62523;53.336;83.690;2022-10-16T09:34:35;99720.69;;;13.45;37.69
74169;BME280;62523;53.336;83.690;2022-10-16T09:39:51;99724.16;;;13.46;37.77
74169;BME280;62523;53.336;83.690;2022-10-16T09:44:53;99721.69;;;13.57;37.29
74169;BME280;62523;53.336;83.690;2022-10-16T09:50:00;99720.97;;;13.55;36.99
74169;BME280;62523;53.336;83.690;2022-10-16T09:55:15;99717.38;;;13.56;37.12
74169;BME280;62523;53.336;83.690;2022-10-16T10:00:19;99702.38;;;13.42;37.34
74169;BME280;62523;53.336;83.690;2022-10-16T10:05:28;99697.31;;;13.38;37.23
74169;BME280;62523;53.336;83.690;2022-10-16T10:10:33;99682.56;;;13.19;37.34
74169;BME280;62523;53.336;83.690;2022-10-16T10:15:41;99692.75;;;13.11;37.64
74169;BME280;62523;53.336;83.690;2022-10-16T10:20:42;99680.81;;;12.75;38.57
74169;BME280;62523;53.336;83.690;2022-10-16T10:36:05;99676.88;;;12.97;37.96
74169;BME280;62523;53.336;83.690;2022-10-16T10:46:35;99663.25;;;12.74;38.81
74169;BME280;62523;53.336;83.690;2022-10-16T10:51:54;99663.97;;;12.32;39.83
74169;BME280;62523;53.336;83.690;2022-10-16T11:02:41;99660.91;;;12.39;39.70
74169;BME280;62523;53.336;83.690;2022-10-16T11:07:51;99663.56;;;12.54;39.34
74169;BME280;62523;53.336;83.690;2022-10-16T11:13:09;99637.06;;;12.55;39.23
74169;BME280;62523;53.336;83.690;2022-10-16T11:18:40;99643.31;;;12.24;40.11
74169;BME280;62523;53.336;83.690;2022-10-16T11:23:49;99635.16;;;11.65;41.33
74169;BME280;62523;53.336;83.690;2022-10-16T11:28:53;99622.13;;;12.09;40.09
74169;BME280;62523;53.336;83.690;2022-10-16T11:34:28;99622.91;;;12.26;39.55
74169;BME280;62523;53.336;83.690;2022-10-16T11:39:31;99618.78;;;12.22;39.34
74169;BME280;62523;53.336;83.690;2022-10-16T11:44:43;99613.50;;;12.22;39.63
74169;BME280;62523;53.336;83.690;2022-10-16T11:49:55;99593.59;;;11.84;40.68
74169;BME280;62523;53.336;83.690;2022-10-16T12:10:35;99614.72;;;11.53;41.48
74169;BME280;62523;53.336;83.690;2022-10-16T12:15:38;99604.59;;;11.93;40.24
74169;BME280;62523;53.336;83.690;2022-10-16T12:20:39;99607.06;;;11.48;41.10
74169;BME280;62523;53.336;83.690;2022-10-16T12:25:56;99608.09;;;11.30;42.04
74169;BME280;62523;53.336;83.690;2022-10-16T12:31:04;99602.97;;;11.11;42.22
74169;BME280;62523;53.336;83.690;2022-10-16T12:36:29;99574.81;;;10.95;42.25
74169;BME280;62523;53.336;83.690;2022-10-16T12:41:33;99584.44;;;10.79;43.22
74169;BME280;62523;53.336;83.690;2022-10-16T12:46:39;99579.75;;;10.68;43.48
74169;BME280;62523;53.336;83.690;2022-10-16T12:51:42;99576.66;;;10.60;43.95
74169;BME280;62523;53.336;83.690;2022-10-16T13:08:11;99570.56;;;10.93;42.54
74169;BME280;62523;53.336;83.690;2022-10-16T13:19:02;99572.13;;;10.79;43.78
74169;BME280;62523;53.336;83.690;2022-10-16T13:29:19;99543.06;;;10.97;43.29
74169;BME280;62523;53.336;83.690;2022-10-16T13:34:22;99548.44;;;10.62;44.04
74169;BME280;62523;53.336;83.690;2022-10-16T13:39:27;99548.00;;;10.54;44.49
74169;BME280;62523;53.336;83.690;2022-10-16T13:44:33;99546.47;;;10.50;44.75
74169;BME280;62523;53.336;83.690;2022-10-16T13:49:37;99520.00;;;10.35;45.36
74169;BME280;62523;53.336;83.690;2022-10-16T13:54:38;99535.56;;;10.40;45.24
74169;BME280;62523;53.336;83.690;2022-10-16T13:59:39;99529.47;;;10.39;45.43
74169;BME280;62523;53.336;83.690;2022-10-16T14:04:41;99523.66;;;10.33;45.40
74169;BME280;62523;53.336;83.690;2022-10-16T14:09:48;99518.31;;;10.68;44.70
74169;BME280;62523;53.336;83.690;2022-10-16T14:14:53;99514.19;;;10.95;44.26
74169;BME280;62523;53.336;83.690;2022-10-16T14:19:57;99511.44;;;10.65;44.89
74169;BME280;62523;53.336;83.690;2022-10-16T14:25:02;99494.19;;;10.91;44.18
74169;BME280;62523;53.336;83.690;2022-10-16T14:30:20;99486.53;;;11.02;44.26
74169;BME280;62523;53.336;83.690;2022-10-16T14:35:36;99478.59;;;10.71;44.74
74169;BME280;62523;53.336;83.690;2022-10-16T14:40:38;99483.38;;;10.64;45.12
74169;BME280;62523;53.336;83.690;2022-10-16T14:45:52;99468.75;;;10.90;44.13
74169;BME280;62523;53.336;83.690;2022-10-16T14:50:54;99470.56;;;10.90;43.99
74169;BME280;62523;53.336;83.690;2022-10-16T14:55:55;99463.41;;;10.92;44.03
74169;BME280;62523;53.336;83.690;2022-10-16T15:00:57;99463.16;;;10.80;44.39
74169;BME280;62523;53.336;83.690;2022-10-16T15:05:59;99453.53;;;10.79;44.48
74169;BME280;62523;53.336;83.690;2022-10-16T15:11:01;99446.28;;;10.51;44.96
74169;BME280;62523;53.336;83.690;2022-10-16T15:16:02;99429.50;;;10.70;44.95
74169;BME280;62523;53.336;83.690;2022-10-16T15:21:03;99421.25;;;10.27;45.84
74169;BME280;62523;53.336;83.690;2022-10-16T15:26:05;99429.47;;;10.20;46.18
74169;BME280;62523;53.336;83.690;2022-10-16T15:31:06;99393.84;;;9.97;46.10
74169;BME280;62523;53.336;83.690;2022-10-16T15:36:08;99426.84;;;10.20;46.44
74169;BME280;62523;53.336;83.690;2022-10-16T15:41:09;99426.25;;;9.98;47.08
74169;BME280;62523;53.336;83.690;2022-10-16T15:46:11;99415.63;;;9.83;47.76
74169;BME280;62523;53.336;83.690;2022-10-16T15:51:16;99410.56;;;9.96;46.92
74169;BME280;62523;53.336;83.690;2022-10-16T15:56:18;99403.00;;;9.90;47.03
74169;BME280;62523;53.336;83.690;2022-10-16T16:01:19;99396.97;;;9.88;47.38
74169;BME280;62523;53.336;83.690;2022-10-16T16:06:21;99387.56;;;10.00;46.69
74169;BME280;62523;53.336;83.690;2022-10-16T16:11:23;99384.25;;;9.96;46.45
74169;BME280;62523;53.336;83.690;2022-10-16T16:16:24;99373.38;;;9.69;47.43
74169;BME280;62523;53.336;83.690;2022-10-16T16:21:27;99378.47;;;9.90;46.94
74169;BME280;62523;53.336;83.690;2022-10-16T16:26:29;99379.88;;;9.79;46.97
74169;BME280;62523;53.336;83.690;2022-10-16T16:31:36;99368.66;;;10.09;45.91
74169;BME280;62523;53.336;83.690;2022-10-16T16:36:37;99357.44;;;10.21;45.55
74169;BME280;62523;53.336;83.690;2022-10-16T16:41:40;99357.91;;;10.30;44.65
74169;BME280;62523;53.336;83.690;2022-10-16T16:46:43;99342.16;;;10.12;45.00
74169;BME280;62523;53.336;83.690;2022-10-16T16:51:44;99330.88;;;10.10;45.17
74169;BME280;62523;53.336;83.690;2022-10-16T16:56:46;99328.47;;;10.05;44.81
74169;BME280;62523;53.336;83.690;2022-10-16T17:01:47;99317.59;;;9.96;44.83
74169;BME280;62523;53.336;83.690;2022-10-16T17:06:49;99307.63;;;9.69;45.65
74169;BME280;62523;53.336;83.690;2022-10-16T17:11:50;99303.00;;;9.90;45.10
74169;BME280;62523;53.336;83.690;2022-10-16T17:16:52;99296.00;;;9.73;44.89
74169;BME280;62523;53.336;83.690;2022-10-16T17:21:54;99255.91;;;9.19;46.11
74169;BME280;62523;53.336;83.690;2022-10-16T17:26:55;99273.94;;;9.76;44.82
74169;BME280;62523;53.336;83.690;2022-10-16T17:31:57;99263.09;;;9.82;44.43
74169;BME280;62523;53.336;83.690;2022-10-16T17:36:59;99252.81;;;9.61;44.87
74169;BME280;62523;53.336;83.690;2022-10-16T17:42:01;99244.94;;;9.44;45.61
74169;BME280;62523;53.336;83.690;2022-10-16T17:47:02;99250.41;;;9.57;45.66
74169;BME280;62523;53.336;83.690;2022-10-16T17:52:03;99242.03;;;9.33;45.97
74169;BME280;62523;53.336;83.690;2022-10-16T17:57:05;99242.47;;;9.41;45.81
74169;BME280;62523;53.336;83.690;2022-10-16T18:02:06;99244.38;;;9.55;45.71
74169;BME280;62523;53.336;83.690;2022-10-16T18:07:08;99229.66;;;9.68;45.06
74169;BME280;62523;53.336;83.690;2022-10-16T18:12:10;99236.41;;;9.56;45.34
74169;BME280;62523;53.336;83.690;2022-10-16T18:17:11;99230.44;;;9.53;45.34
74169;BME280;62523;53.336;83.690;2022-10-16T18:22:12;99220.50;;;9.75;44.52
74169;BME280;62523;53.336;83.690;2022-10-16T18:27:13;99219.72;;;9.73;44.40
74169;BME280;62523;53.336;83.690;2022-10-16T18:32:15;99227.88;;;9.69;44.62
74169;BME280;62523;53.336;83.690;2022-10-16T18:37:16;99216.13;;;9.74;44.50
74169;BME280;62523;53.336;83.690;2022-10-16T18:42:18;99211.31;;;9.82;44.22
74169;BME280;62523;53.336;83.690;2022-10-16T18:47:19;99218.47;;;9.96;42.98
74169;BME280;62523;53.336;83.690;2022-10-16T18:52:21;99222.63;;;10.00;43.02
74169;BME280;62523;53.336;83.690;2022-10-16T18:57:25;99209.63;;;9.81;43.85
74169;BME280;62523;53.336;83.690;2022-10-16T19:02:27;99216.59;;;9.98;43.20
74169;BME280;62523;53.336;83.690;2022-10-16T19:07:28;99206.34;;;9.94;42.82
74169;BME280;62523;53.336;83.690;2022-10-16T19:12:31;99213.19;;;9.80;43.44
74169;BME280;62523;53.336;83.690;2022-10-16T19:17:32;99211.00;;;9.73;43.84
74169;BME280;62523;53.336;83.690;2022-10-16T19:22:33;99214.91;;;9.81;43.22
74169;BME280;62523;53.336;83.690;2022-10-16T19:28:07;99212.09;;;9.69;44.48
74169;BME280;62523;53.336;83.690;2022-10-16T19:33:09;99210.03;;;9.74;44.20
74169;BME280;62523;53.336;83.690;2022-10-16T19:38:10;99214.53;;;10.19;43.63
74169;BME280;62523;53.336;83.690;2022-10-16T19:43:11;99208.69;;;10.46;43.79
74169;BME280;62523;53.336;83.690;2022-10-16T19:48:13;99210.75;;;10.71;43.81
74169;BME280;62523;53.336;83.690;2022-10-16T19:53:14;99190.00;;;11.10;43.46
74169;BME280;62523;53.336;83.690;2022-10-16T19:58:15;99186.53;;;11.23;43.45
74169;BME280;62523;53.336;83.690;2022-10-16T20:03:16;99184.53;;;11.27;43.58
74169;BME280;62523;53.336;83.690;2022-10-16T20:08:18;99173.63;;;11.19;43.87
74169;BME280;62523;53.336;83.690;2022-10-16T20:13:20;99185.69;;;11.23;44.26
74169;BME280;62523;53.336;83.690;2022-10-16T20:18:22;99186.50;;;11.09;44.10
74169;BME280;62523;53.336;83.690;2022-10-16T20:23:23;99194.91;;;11.30;44.59
74169;BME280;62523;53.336;83.690;2022-10-16T20:28:24;99182.16;;;11.65;44.71
74169;BME280;62523;53.336;83.690;2022-10-16T20:33:25;99181.41;;;11.78;46.11
74169;BME280;62523;53.336;83.690;2022-10-16T20:38:27;99179.81;;;11.61;46.35
74169;BME280;62523;53.336;83.690;2022-10-16T20:43:28;99187.00;;;11.30;47.16
74169;BME280;62523;53.336;83.690;2022-10-16T20:48:29;99196.50;;;11.18;47.74
74169;BME280;62523;53.336;83.690;2022-10-16T20:53:31;99177.56;;;11.12;48.81
74169;BME280;62523;53.336;83.690;2022-10-16T20:58:32;99184.91;;;11.06;50.05
74169;BME280;62523;53.336;83.690;2022-10-16T21:03:34;99169.13;;;11.21;52.38
74169;BME280;62523;53.336;83.690;2022-10-16T21:08:36;99164.09;;;11.31;54.37
74169;BME280;62523;53.336;83.690;2022-10-16T21:13:38;99151.97;;;11.14;57.01
74169;BME280;62523;53.336;83.690;2022-10-16T21:18:40;99148.75;;;11.09;57.13
74169;BME280;62523;53.336;83.690;2022-10-16T21:23:43;99119.38;;;10.86;57.52
74169;BME280;62523;53.336;83.690;2022-10-16T21:28:44;99123.44;;;10.92;56.99
74169;BME280;62523;53.336;83.690;2022-10-16T21:33:46;99105.63;;;11.24;56.63
74169;BME280;62523;53.336;83.690;2022-10-16T21:38:47;99099.72;;;11.06;56.88
74169;BME280;62523;53.336;83.690;2022-10-16T21:43:49;99086.16;;;10.98;58.45
74169;BME280;62523;53.336;83.690;2022-10-16T21:48:54;99102.72;;;10.71;59.82
74169;BME280;62523;53.336;83.690;2022-10-16T21:53:56;99094.91;;;10.98;59.05
74169;BME280;62523;53.336;83.690;2022-10-16T21:58:57;99092.94;;;10.88;59.97
74169;BME280;62523;53.336;83.690;2022-10-16T22:03:59;99090.69;;;10.96;59.88
74169;BME280;62523;53.336;83.690;2022-10-16T22:09:00;99110.72;;;10.98;60.14
74169;BME280;62523;53.336;83.690;2022-10-16T22:14:07;99086.91;;;11.00;60.12
74169;BME280;62523;53.336;83.690;2022-10-16T22:19:10;99101.69;;;10.88;60.79
74169;BME280;62523;53.336;83.690;2022-10-16T22:24:13;99099.22;;;10.71;61.50
74169;BME280;62523;53.336;83.690;2022-10-16T22:29:15;99087.66;;;10.88;60.70
74169;BME280;62523;53.336;83.690;2022-10-16T22:34:18;99093.03;;;10.86;61.08
74169;BME280;62523;53.336;83.690;2022-10-16T22:39:19;99090.56;;;10.69;61.72
74169;BME280;62523;53.336;83.690;2022-10-16T22:44:20;99086.81;;;10.73;62.31
74169;BME280;62523;53.336;83.690;2022-10-16T22:49:22;99080.16;;;10.67;62.46
74169;BME280;62523;53.336;83.690;2022-10-16T22:54:23;99083.94;;;10.33;66.99
74169;BME280;62523;53.336;83.690;2022-10-16T22:59:24;99101.34;;;9.73;65.51
74169;BME280;62523;53.336;83.690;2022-10-16T23:04:26;99117.75;;;9.47;65.00
74169;BME280;62523;53.336;83.690;2022-10-16T23:09:27;99106.44;;;9.29;64.94
74169;BME280;62523;53.336;83.690;2022-10-16T23:14:28;99096.44;;;9.19;65.79
74169;BME280;62523;53.336;83.690;2022-10-16T23:19:29;99087.00;;;9.31;64.50
74169;BME280;62523;53.336;83.690;2022-10-16T23:24:31;99074.13;;;9.27;64.21
74169;BME280;62523;53.336;83.690;2022-10-16T23:29:32;99067.53;;;9.51;61.63
74169;BME280;62523;53.336;83.690;2022-10-16T23:34:34;99059.63;;;9.51;61.12
74169;BME280;62523;53.336;83.690;2022-10-16T23:39:35;99058.03;;;9.49;61.74
74169;BME280;62523;53.336;83.690;2022-10-16T23:44:36;99054.09;;;9.72;60.25
74169;BME280;62523;53.336;83.690;2022-10-16T23:49:38;99059.25;;;9.73;59.19
74169;BME280;62523;53.336;83.690;2022-10-16T23:54:39;99045.88;;;9.62;59.14
74169;BME280;62523;53.336;83.690;2022-10-16T23:59:40;99035.59;;;9.73;57.45
